Time;durP1;ratioP1;P1;durP2;ratioP2;P2;SDS_P1;SDS_P2;PMS_P1;PMS_P2;Temp;Humidity;BMP_temperature;BMP_pressure;BME280_temperature;BME280_humidity;BME280_pressure;Samples;Min_cycle;Max_cycle;Signal;HPM_P1;HPM_P2
2023/07/05 00:00:14;;;;;;;6.13;3.15;;;17.60;99.90;;;;;;5072561;28;20229;-58
2023/07/05 00:02:41;;;;;;;4.97;3.22;;;17.60;99.90;;;;;;5072013;28;20669;-58
2023/07/05 00:05:08;;;;;;;4.80;3.35;;;17.60;99.90;;;;;;5071715;28;20235;-60
2023/07/05 00:07:36;;;;;;;5.38;3.45;;;17.70;99.90;;;;;;5071836;28;20295;-58
2023/07/05 00:10:03;;;;;;;4.70;3.08;;;17.80;99.90;;;;;;5071646;28;20228;-58
2023/07/05 00:12:30;;;;;;;5.53;3.47;;;17.80;99.90;;;;;;5071874;28;20205;-59
2023/07/05 00:14:56;;;;;;;5.25;3.10;;;17.80;99.90;;;;;;5071421;28;20208;-59
2023/07/05 00:17:23;;;;;;;6.90;3.25;;;17.90;99.90;;;;;;5071662;28;20331;-59
2023/07/05 00:19:51;;;;;;;4.70;3.55;;;18.00;99.90;;;;;;5071569;28;20233;-59
2023/07/05 00:22:17;;;;;;;6.57;3.15;;;18.10;99.90;;;;;;5070911;28;20704;-57
2023/07/05 00:24:45;;;;;;;3.63;2.65;;;18.10;99.90;;;;;;5071593;28;20692;-58
2023/07/05 00:27:13;;;;;;;6.43;3.55;;;18.20;99.90;;;;;;5071344;28;20265;-58
2023/07/05 00:29:40;;;;;;;5.30;3.33;;;18.20;99.90;;;;;;5071698;28;20525;-58
2023/07/05 00:32:07;;;;;;;7.25;3.33;;;18.30;99.90;;;;;;5071573;28;20208;-59
2023/07/05 00:34:34;;;;;;;5.22;3.15;;;18.40;99.90;;;;;;5071466;28;20208;-58
2023/07/05 00:37:00;;;;;;;5.47;3.25;;;18.40;99.90;;;;;;5071178;28;20208;-58
2023/07/05 00:39:27;;;;;;;5.95;3.22;;;18.50;99.90;;;;;;5071214;28;20229;-57
2023/07/05 00:41:55;;;;;;;5.30;3.72;;;18.40;99.90;;;;;;5071567;28;20211;-57
2023/07/05 00:44:22;;;;;;;6.75;2.97;;;18.40;99.90;;;;;;5071163;28;20347;-56
2023/07/05 00:46:52;;;;;;;6.18;2.92;;;18.40;99.90;;;;;;5071173;28;20263;-56
2023/07/05 00:49:21;;;;;;;4.45;3.20;;;18.40;99.90;;;;;;5071325;28;20274;-57
2023/07/05 00:51:53;;;;;;;4.35;3.28;;;18.50;99.90;;;;;;5071476;28;20205;-56
2023/07/05 00:54:35;;;;;;;4.97;3.30;;;18.50;99.90;;;;;;5071058;28;20343;-57
2023/07/05 00:57:08;;;;;;;5.13;3.30;;;18.50;99.90;;;;;;5071143;28;20230;-57
2023/07/05 00:59:42;;;;;;;3.47;2.92;;;18.60;99.90;;;;;;5072559;28;20231;-57
2023/07/05 01:02:09;;;;;;;6.00;3.10;;;18.70;99.90;;;;;;5071100;28;20262;-58
2023/07/05 01:04:36;;;;;;;5.78;2.80;;;18.80;99.90;;;;;;5071223;28;20298;-57
2023/07/05 01:07:03;;;;;;;6.07;3.03;;;18.90;99.90;;;;;;5071260;28;20251;-58
2023/07/05 01:09:31;;;;;;;6.85;3.30;;;19.00;99.90;;;;;;5071441;28;20320;-57
2023/07/05 01:12:09;;;;;;;5.80;3.00;;;19.10;99.90;;;;;;5071478;28;20201;-57
2023/07/05 01:14:46;;;;;;;4.10;2.60;;;19.20;99.90;;;;;;5071400;28;20243;-56
2023/07/05 01:17:19;;;;;;;4.03;2.80;;;19.30;99.90;;;;;;5071358;28;20220;-58
2023/07/05 01:20:04;;;;;;;5.90;3.17;;;19.40;99.90;;;;;;5072050;28;20614;-57
2023/07/05 01:23:12;;;;;;;4.68;2.85;;;19.50;99.90;;;;;;5071659;28;20205;-57
2023/07/05 01:26:08;;;;;;;4.45;3.22;;;19.60;99.90;;;;;;5071039;28;20211;-60
2023/07/05 01:28:57;;;;;;;3.22;2.40;;;19.70;99.90;;;;;;5063589;28;20278;-56
2023/07/05 01:31:48;;;;;;;4.15;2.75;;;19.70;99.90;;;;;;5070613;28;20664;-56
2023/07/05 01:34:23;;;;;;;4.10;3.00;;;19.80;99.90;;;;;;5073004;28;20201;-56
2023/07/05 01:36:50;;;;;;;3.38;2.78;;;19.80;99.90;;;;;;5075028;28;20211;-57
2023/07/05 01:39:16;;;;;;;4.03;2.55;;;19.90;99.90;;;;;;5074956;28;20250;-55
2023/07/05 01:41:43;;;;;;;4.90;2.63;;;20.10;99.90;;;;;;5074943;28;20208;-55
2023/07/05 01:44:12;;;;;;;4.43;2.63;;;20.10;99.90;;;;;;5074287;28;20224;-57
2023/07/05 01:46:46;;;;;;;3.35;1.92;;;20.30;99.90;;;;;;5074245;28;20204;-56
2023/07/05 01:49:27;;;;;;;4.25;1.80;;;20.30;99.90;;;;;;5074792;28;20232;-58
2023/07/05 01:51:59;;;;;;;4.30;2.05;;;20.40;99.90;;;;;;5074786;28;20686;-56
2023/07/05 01:54:33;;;;;;;4.13;2.22;;;20.60;99.90;;;;;;5074720;28;20303;-57
2023/07/05 01:57:08;;;;;;;2.97;1.70;;;20.60;99.90;;;;;;5074547;28;20781;-56
2023/07/05 01:59:40;;;;;;;4.32;1.90;;;20.70;99.90;;;;;;5074380;28;20263;-56
2023/07/05 02:02:10;;;;;;;4.15;2.10;;;20.70;99.90;;;;;;5074304;28;20227;-56
2023/07/05 02:04:37;;;;;;;2.58;2.03;;;20.70;99.90;;;;;;5074265;28;20228;-56
2023/07/05 02:07:05;;;;;;;3.42;2.00;;;20.80;99.90;;;;;;5073788;28;20213;-56
2023/07/05 02:09:37;;;;;;;2.85;1.83;;;20.70;99.90;;;;;;5074263;28;20731;-56
2023/07/05 02:12:04;;;;;;;2.33;1.83;;;20.80;99.90;;;;;;5074340;28;20220;-57
2023/07/05 02:14:31;;;;;;;4.35;1.90;;;20.80;99.90;;;;;;5073923;28;20681;-57
2023/07/05 02:16:57;;;;;;;2.78;1.90;;;20.80;99.90;;;;;;5073768;28;20205;-56
2023/07/05 02:19:26;;;;;;;3.65;1.70;;;20.80;99.90;;;;;;5073700;28;20287;-56
2023/07/05 02:21:53;;;;;;;4.70;2.00;;;20.90;99.90;;;;;;5074030;28;20220;-58
2023/07/05 02:24:20;;;;;;;2.97;1.70;;;20.90;99.90;;;;;;5074264;28;20621;-55
2023/07/05 02:26:47;;;;;;;2.20;1.83;;;21.00;99.90;;;;;;5073672;28;20209;-57
2023/07/05 02:29:13;;;;;;;2.60;1.90;;;21.10;99.90;;;;;;5073663;28;20225;-57
2023/07/05 02:31:40;;;;;;;3.72;1.80;;;21.10;99.90;;;;;;5073567;28;20692;-56
2023/07/05 02:34:07;;;;;;;5.13;2.35;;;21.00;99.90;;;;;;5073655;28;20205;-59
2023/07/05 02:36:35;;;;;;;3.10;2.22;;;21.00;99.90;;;;;;5073998;28;20266;-57
2023/07/05 02:39:02;;;;;;;5.55;2.50;;;21.10;99.90;;;;;;5073753;28;20221;-56
2023/07/05 02:41:28;;;;;;;4.18;2.40;;;21.10;99.90;;;;;;5073784;28;20209;-57
2023/07/05 02:43:55;;;;;;;4.22;2.35;;;21.10;99.90;;;;;;5073535;28;20209;-56
2023/07/05 02:46:25;;;;;;;2.78;2.20;;;21.10;99.90;;;;;;5072332;28;20583;-57
2023/07/05 02:48:52;;;;;;;3.08;2.10;;;21.10;99.90;;;;;;5073354;28;20327;-56
2023/07/05 02:51:19;;;;;;;5.60;2.30;;;21.00;99.90;;;;;;5074529;28;20213;-56
2023/07/05 02:53:47;;;;;;;5.50;2.45;;;21.00;99.90;;;;;;5073559;28;20631;-56
2023/07/05 02:56:15;;;;;;;5.10;2.60;;;21.00;99.90;;;;;;5073208;28;20216;-57
2023/07/05 02:58:42;;;;;;;10.68;6.47;;;21.00;99.90;;;;;;5074277;28;20229;-57
2023/07/05 03:01:08;;;;;;;5.63;2.65;;;21.00;99.90;;;;;;5073834;28;20205;-57
2023/07/05 03:03:35;;;;;;;5.13;2.30;;;20.90;99.90;;;;;;5073830;28;20205;-57
2023/07/05 03:06:02;;;;;;;6.45;2.85;;;20.90;99.90;;;;;;5073631;28;20233;-57
2023/07/05 03:08:30;;;;;;;5.78;2.35;;;20.80;99.90;;;;;;5073538;28;20232;-56
2023/07/05 03:10:59;;;;;;;3.38;2.53;;;20.80;99.90;;;;;;5073357;28;20213;-56
2023/07/05 03:13:27;;;;;;;3.75;2.53;;;20.80;99.90;;;;;;5073170;28;20216;-58
2023/07/05 03:15:54;;;;;;;4.93;2.42;;;20.70;99.90;;;;;;5072825;28;20223;-58
2023/07/05 03:18:21;;;;;;;4.15;2.67;;;20.70;99.90;;;;;;5073304;28;20631;-56
2023/07/05 03:20:48;;;;;;;3.10;2.30;;;20.60;99.90;;;;;;5073502;28;20311;-56
2023/07/05 03:23:16;;;;;;;5.00;2.40;;;20.60;99.90;;;;;;5073582;28;20262;-56
2023/07/05 03:25:53;;;;;;;7.43;5.03;;;20.60;99.90;;;;;;5073166;28;20646;-57
2023/07/05 03:28:21;;;;;;;4.50;2.90;;;20.50;99.90;;;;;;5073191;28;20232;-56
2023/07/05 03:30:55;;;;;;;5.80;4.03;;;20.50;99.90;;;;;;5073342;28;20216;-57
2023/07/05 03:33:21;;;;;;;4.50;2.50;;;20.50;99.90;;;;;;5072772;28;20208;-56
2023/07/05 03:35:54;;;;;;;5.78;3.47;;;20.60;99.90;;;;;;5072461;28;20209;-56
2023/07/05 03:38:21;;;;;;;7.88;4.78;;;20.50;99.90;;;;;;5073296;28;20606;-57
2023/07/05 03:40:57;;;;;;;3.58;2.60;;;20.50;99.90;;;;;;5073057;28;20216;-57
2023/07/05 03:43:26;;;;;;;4.22;2.53;;;20.40;99.90;;;;;;5073255;28;20300;-56
2023/07/05 03:45:52;;;;;;;3.55;2.25;;;20.40;99.90;;;;;;5072671;28;20225;-57
2023/07/05 03:48:20;;;;;;;4.15;2.10;;;20.40;99.90;;;;;;5072589;28;20225;-56
2023/07/05 03:50:47;;;;;;;4.15;2.53;;;20.30;99.90;;;;;;5072483;28;20216;-59
2023/07/05 03:53:14;;;;;;;4.95;2.35;;;20.30;99.90;;;;;;5072627;28;20205;-56
2023/07/05 03:55:40;;;;;;;4.90;1.98;;;20.30;99.90;;;;;;5071787;28;20254;-56
2023/07/05 03:58:07;;;;;;;5.30;1.90;;;20.20;99.90;;;;;;5072207;28;20217;-57
2023/07/05 04:00:35;;;;;;;3.65;2.90;;;20.20;99.90;;;;;;5072518;28;20215;-56
2023/07/05 04:03:02;;;;;;;4.10;1.73;;;20.10;99.90;;;;;;5073066;28;20215;-56
2023/07/05 04:05:28;;;;;;;2.60;1.80;;;20.00;99.90;;;;;;5072898;28;20221;-57
2023/07/05 04:07:55;;;;;;;3.53;2.10;;;20.00;99.90;;;;;;5072338;28;20209;-57
2023/07/05 04:10:22;;;;;;;3.88;1.85;;;20.10;99.90;;;;;;5073242;28;20232;-57
2023/07/05 04:12:50;;;;;;;2.67;2.15;;;20.00;99.90;;;;;;5073105;28;20208;-56
2023/07/05 04:15:17;;;;;;;2.67;1.90;;;20.00;99.90;;;;;;5072558;28;20209;-57
2023/07/05 04:17:45;;;;;;;3.28;1.83;;;20.10;99.90;;;;;;5072672;28;20262;-57
2023/07/05 04:20:12;;;;;;;3.40;2.40;;;20.10;99.90;;;;;;5072915;28;20252;-58
2023/07/05 04:22:40;;;;;;;2.67;2.10;;;20.20;99.90;;;;;;5074301;28;20209;-57
2023/07/05 04:25:08;;;;;;;3.00;1.67;;;20.20;99.90;;;;;;5074871;28;20235;-56
2023/07/05 04:27:35;;;;;;;2.60;1.70;;;20.20;99.90;;;;;;5073628;28;20213;-57
2023/07/05 04:30:03;;;;;;;2.00;1.55;;;20.20;99.90;;;;;;5073518;28;20255;-58
2023/07/05 04:32:30;;;;;;;2.53;1.83;;;20.30;99.90;;;;;;5073793;28;20241;-58
2023/07/05 04:34:58;;;;;;;5.22;2.15;;;20.20;99.90;;;;;;5072102;28;20695;-57
2023/07/05 04:37:25;;;;;;;2.28;1.80;;;20.20;99.90;;;;;;5071685;28;20732;-57
2023/07/05 04:39:51;;;;;;;3.67;2.10;;;20.30;99.90;;;;;;5072373;28;20248;-56
2023/07/05 04:42:18;;;;;;;1.42;1.33;;;20.30;99.90;;;;;;5072373;28;20213;-56
2023/07/05 04:44:45;;;;;;;2.53;1.60;;;20.30;99.90;;;;;;5072443;28;20228;-56
2023/07/05 04:47:12;;;;;;;1.70;1.45;;;20.40;99.90;;;;;;5071913;28;20205;-57
2023/07/05 04:49:38;;;;;;;2.15;1.38;;;20.40;99.90;;;;;;5071951;28;20646;-57
2023/07/05 04:52:08;;;;;;;1.40;1.30;;;20.40;99.90;;;;;;5072276;28;20680;-56
2023/07/05 04:54:35;;;;;;;3.10;1.63;;;20.40;99.90;;;;;;5071864;28;20579;-57
2023/07/05 04:57:02;;;;;;;3.88;1.58;;;20.30;99.90;;;;;;5071981;28;20205;-57
2023/07/05 04:59:29;;;;;;;5.30;1.88;;;20.30;99.90;;;;;;5071793;28;20228;-58
2023/07/05 05:01:56;;;;;;;3.13;1.80;;;20.30;99.90;;;;;;5072066;28;20204;-55
2023/07/05 05:04:23;;;;;;;1.95;1.30;;;20.30;99.90;;;;;;5071704;28;20213;-58
2023/07/05 05:06:49;;;;;;;2.67;1.63;;;20.40;99.90;;;;;;5071459;28;20287;-57
2023/07/05 05:09:18;;;;;;;3.13;1.70;;;20.50;99.90;;;;;;5071342;28;20233;-57
2023/07/05 05:11:44;;;;;;;1.90;1.30;;;20.90;99.90;;;;;;5071654;28;20208;-57
2023/07/05 05:14:11;;;;;;;6.60;4.88;;;21.50;99.90;;;;;;5071920;28;20205;-58
2023/07/05 05:16:38;;;;;;;2.50;1.40;;;22.00;99.90;;;;;;5071458;28;20212;-56
2023/07/05 05:19:05;;;;;;;2.20;1.30;;;22.50;99.90;;;;;;5071545;28;20300;-58
2023/07/05 05:21:32;;;;;;;3.45;1.60;;;23.30;99.90;;;;;;5072087;28;20582;-56
2023/07/05 05:23:58;;;;;;;3.45;1.50;;;24.20;99.90;;;;;;5071416;28;20209;-56
2023/07/05 05:26:26;;;;;;;1.98;1.35;;;24.40;99.90;;;;;;5070834;28;20251;-58
2023/07/05 05:28:53;;;;;;;1.85;1.30;;;24.30;99.90;;;;;;5070609;28;20244;-57
2023/07/05 05:31:20;;;;;;;18.20;15.93;;;24.00;99.90;;;;;;5070887;28;20277;-57
2023/07/05 05:33:47;;;;;;;2.17;1.55;;;23.70;99.90;;;;;;5070833;28;20295;-58
2023/07/05 05:36:14;;;;;;;3.00;1.35;;;23.40;99.90;;;;;;5070973;28;20232;-57
2023/07/05 05:38:41;;;;;;;2.88;1.50;;;23.40;99.90;;;;;;5070689;28;20224;-56
2023/07/05 05:41:10;;;;;;;3.38;1.60;;;23.50;99.90;;;;;;5071138;28;20205;-58
2023/07/05 05:43:39;;;;;;;2.35;1.20;;;23.80;99.90;;;;;;5070766;28;20304;-57
2023/07/05 05:46:07;;;;;;;3.38;1.25;;;24.00;99.90;;;;;;5070373;28;20316;-58
2023/07/05 05:48:34;;;;;;;1.50;1.30;;;24.00;99.90;;;;;;5070516;28;20254;-56
2023/07/05 05:51:01;;;;;;;1.50;1.10;;;23.90;99.90;;;;;;5070684;28;20212;-57
2023/07/05 05:53:28;;;;;;;3.47;1.42;;;23.80;99.90;;;;;;5070544;28;20598;-59
2023/07/05 05:55:57;;;;;;;2.38;1.30;;;23.80;99.90;;;;;;5071256;28;20205;-56
2023/07/05 05:58:24;;;;;;;2.17;1.40;;;23.70;99.90;;;;;;5070477;28;20315;-55
2023/07/05 06:00:52;;;;;;;3.08;1.77;;;23.60;99.90;;;;;;5070677;28;20212;-56
2023/07/05 06:03:18;;;;;;;2.30;1.40;;;23.50;99.90;;;;;;5070846;28;20232;-62
2023/07/05 06:05:45;;;;;;;2.08;1.63;;;23.40;99.90;;;;;;5070447;28;20221;-64
2023/07/05 06:08:12;;;;;;;2.55;1.42;;;23.30;99.90;;;;;;5070818;28;20205;-64
2023/07/05 06:10:39;;;;;;;3.55;1.50;;;23.30;99.90;;;;;;5070199;28;20216;-61
2023/07/05 06:13:05;;;;;;;2.67;1.48;;;23.40;99.90;;;;;;5070138;28;20266;-62
2023/07/05 06:15:32;;;;;;;3.40;1.50;;;23.50;99.90;;;;;;5070852;28;20628;-62
2023/07/05 06:18:00;;;;;;;4.13;1.42;;;23.70;99.90;;;;;;5070266;28;20212;-62
2023/07/05 06:20:29;;;;;;;4.15;1.50;;;23.90;99.90;;;;;;5071583;28;20211;-63
2023/07/05 06:22:56;;;;;;;3.10;1.40;;;24.30;99.90;;;;;;5074589;28;20212;-62
2023/07/05 06:25:23;;;;;;;1.63;1.40;;;24.50;99.90;;;;;;5073822;28;20232;-63
2023/07/05 06:27:49;;;;;;;3.28;1.35;;;24.70;99.90;;;;;;5074129;28;20204;-63
2023/07/05 06:30:17;;;;;;;2.08;1.23;;;24.40;99.90;;;;;;5074202;28;20315;-63
2023/07/05 06:32:45;;;;;;;4.45;1.40;;;24.40;99.90;;;;;;5073737;28;20587;-63
2023/07/05 06:35:13;;;;;;;3.45;1.75;;;24.50;99.90;;;;;;5074277;28;20291;-62
2023/07/05 06:37:40;;;;;;;2.75;1.58;;;24.70;99.90;;;;;;5073801;28;20205;-63
2023/07/05 06:40:08;;;;;;;2.75;1.60;;;24.80;99.90;;;;;;5073561;28;20664;-63
2023/07/05 06:42:35;;;;;;;3.00;2.10;;;24.90;99.90;;;;;;5073896;28;20334;-63
2023/07/05 06:45:01;;;;;;;2.30;1.40;;;25.10;99.90;;;;;;5073994;28;20649;-59
2023/07/05 06:47:28;;;;;;;2.47;1.58;;;25.50;99.90;;;;;;5073685;28;20574;-58
2023/07/05 06:49:55;;;;;;;5.60;1.95;;;25.40;99.90;;;;;;5073550;28;20311;-58
2023/07/05 06:52:23;;;;;;;3.50;1.60;;;24.90;99.90;;;;;;5070114;28;20445;-59
2023/07/05 06:54:50;;;;;;;1.92;1.50;;;24.20;99.90;;;;;;5073306;28;20342;-57
2023/07/05 06:57:17;;;;;;;1.40;1.27;;;23.50;99.90;;;;;;5073258;28;20236;-56
2023/07/05 06:59:44;;;;;;;6.13;1.58;;;23.10;99.90;;;;;;5073403;28;20246;-57
2023/07/05 07:02:11;;;;;;;3.30;1.42;;;22.60;99.90;;;;;;5072861;28;20220;-57
2023/07/05 07:04:37;;;;;;;3.55;1.75;;;22.20;99.90;;;;;;5072705;28;20212;-57
2023/07/05 07:07:05;;;;;;;4.75;1.80;;;21.90;99.90;;;;;;5072609;28;20225;-57
2023/07/05 07:09:34;;;;;;;3.80;1.55;;;21.60;99.90;;;;;;5072963;28;20779;-58
2023/07/05 07:12:00;;;;;;;4.90;1.95;;;21.40;99.90;;;;;;5073010;28;20219;-57
2023/07/05 07:14:27;;;;;;;3.85;2.10;;;21.10;99.90;;;;;;5072687;28;20205;-58
2023/07/05 07:16:55;;;;;;;14.77;12.30;;;20.90;99.90;;;;;;5072718;28;20201;-58
2023/07/05 07:19:21;;;;;;;6.90;2.08;;;20.80;99.90;;;;;;5073221;28;20247;-60
2023/07/05 07:21:48;;;;;;;3.33;1.65;;;20.60;99.90;;;;;;5072773;28;20209;-60
2023/07/05 07:24:15;;;;;;;6.22;3.83;;;20.50;99.90;;;;;;5072926;28;20201;-58
2023/07/05 07:26:44;;;;;;;4.20;1.77;;;20.40;99.90;;;;;;5071854;28;20316;-59
2023/07/05 07:29:11;;;;;;;4.03;1.58;;;20.30;99.90;;;;;;5072571;28;20225;-60
2023/07/05 07:31:38;;;;;;;5.95;1.95;;;20.30;99.90;;;;;;5072140;28;20312;-59
2023/07/05 07:34:07;;;;;;;6.45;1.80;;;20.50;99.90;;;;;;5072165;28;20669;-60
2023/07/05 07:36:35;;;;;;;2.70;1.65;;;20.80;99.90;;;;;;5072394;28;20207;-60
2023/07/05 07:39:03;;;;;;;6.75;2.00;;;21.30;99.90;;;;;;5071986;28;20256;-59
2023/07/05 07:41:32;;;;;;;5.38;1.75;;;22.00;99.90;;;;;;5072468;28;20201;-60
2023/07/05 07:44:02;;;;;;;4.35;1.92;;;23.00;99.90;;;;;;5072280;28;20578;-59
2023/07/05 07:46:30;;;;;;;1.63;1.27;;;23.70;99.90;;;;;;5072102;28;20221;-60
2023/07/05 07:48:59;;;;;;;2.92;1.50;;;24.00;99.90;;;;;;5072180;28;20746;-60
2023/07/05 07:51:27;;;;;;;3.67;1.30;;;24.30;99.90;;;;;;5072182;28;20212;-60
2023/07/05 07:53:54;;;;;;;2.97;1.45;;;24.50;99.90;;;;;;5072107;28;20216;-60
2023/07/05 07:56:23;;;;;;;3.97;1.30;;;24.80;99.90;;;;;;5071819;28;20201;-61
2023/07/05 07:58:51;;;;;;;1.40;1.15;;;26.00;99.90;;;;;;5072061;28;20324;-61
2023/07/05 08:01:22;;;;;;;2.75;1.48;;;27.40;99.90;;;;;;5072340;28;20231;-60
2023/07/05 08:03:49;;;;;;;2.40;1.55;;;27.80;99.90;;;;;;5072458;28;20220;-60
2023/07/05 08:06:16;;;;;;;2.10;1.60;;;27.70;99.90;;;;;;5072519;28;20217;-60
2023/07/05 08:08:43;;;;;;;4.40;1.60;;;27.20;99.90;;;;;;5072501;28;20228;-59
2023/07/05 08:11:10;;;;;;;4.88;1.50;;;26.80;99.90;;;;;;5073337;28;20217;-61
2023/07/05 08:13:40;;;;;;;7.80;6.53;;;26.40;99.90;;;;;;5072258;28;20625;-59
2023/07/05 08:16:07;;;;;;;3.05;1.75;;;26.40;99.90;;;;;;5071824;28;20243;-60
2023/07/05 08:18:35;;;;;;;3.15;1.45;;;26.30;99.90;;;;;;5072203;28;20233;-60
2023/07/05 08:21:02;;;;;;;2.90;1.35;;;25.80;99.90;;;;;;5072645;28;20228;-60
2023/07/05 08:23:29;;;;;;;4.10;2.00;;;25.30;99.90;;;;;;5072122;28;20227;-60
2023/07/05 08:25:56;;;;;;;2.40;1.75;;;24.60;99.90;;;;;;5071480;28;20277;-60
2023/07/05 08:28:23;;;;;;;2.33;1.85;;;24.20;99.90;;;;;;5071178;28;20665;-60
2023/07/05 08:30:55;;;;;;;4.75;1.98;;;23.60;99.90;;;;;;5071696;28;20211;-59
2023/07/05 08:33:22;;;;;;;2.38;1.70;;;23.10;99.90;;;;;;5071944;28;20312;-60
2023/07/05 08:35:51;;;;;;;4.28;1.73;;;22.80;99.90;;;;;;5071108;28;20213;-60
2023/07/05 08:38:18;;;;;;;3.75;1.85;;;22.80;99.90;;;;;;5071551;28;20660;-61
2023/07/05 08:40:50;;;;;;;3.80;2.05;;;22.70;99.90;;;;;;5071235;28;20295;-61
2023/07/05 08:43:30;;;;;;;5.68;2.10;;;22.40;99.90;;;;;;5070982;28;20213;-66
2023/07/05 08:46:04;;;;;;;2.92;2.08;;;22.20;99.90;;;;;;5071149;28;20771;-62
2023/07/05 08:48:33;;;;;;;3.78;2.33;;;21.90;99.90;;;;;;5071269;28;20224;-61
2023/07/05 08:51:03;;;;;;;3.63;2.30;;;21.70;99.90;;;;;;5071652;28;20237;-62
2023/07/05 08:53:32;;;;;;;4.07;2.58;;;21.60;99.90;;;;;;5071072;28;20262;-62
2023/07/05 08:56:04;;;;;;;3.08;2.30;;;21.50;99.90;;;;;;5071294;28;20641;-63
2023/07/05 08:58:39;;;;;;;3.00;2.70;;;21.40;99.90;;;;;;5071460;28;20233;-63
2023/07/05 09:01:12;;;;;;;4.30;2.50;;;21.40;99.90;;;;;;5071262;28;20208;-61
2023/07/05 09:03:39;;;;;;;3.72;2.58;;;21.50;99.90;;;;;;5070562;28;20209;-60
2023/07/05 09:06:18;;;;;;;2.97;2.50;;;21.60;99.90;;;;;;5070667;28;20294;-61
2023/07/05 09:08:56;;;;;;;4.93;3.20;;;22.10;99.90;;;;;;5071149;28;20228;-64
2023/07/05 09:11:32;;;;;;;4.68;2.80;;;22.40;99.90;;;;;;5071274;28;20205;-65
2023/07/05 09:14:08;;;;;;;2.88;2.58;;;22.70;99.90;;;;;;5071209;28;20226;-64
2023/07/05 09:16:42;;;;;;;7.13;3.83;;;23.00;99.90;;;;;;5070718;28;20222;-65
2023/07/05 09:19:14;;;;;;;4.82;3.13;;;23.40;99.90;;;;;;5070803;28;20890;-62
2023/07/05 09:21:46;;;;;;;6.30;4.00;;;23.70;99.90;;;;;;5071038;28;20308;-62
2023/07/05 09:24:22;;;;;;;3.38;2.33;;;23.90;99.90;;;;;;5071343;28;20224;-66
2023/07/05 09:26:53;;;;;;;3.20;2.90;;;24.20;99.90;;;;;;5069686;28;20235;-65
2023/07/05 09:29:30;;;;;;;3.00;2.55;;;24.30;99.90;;;;;;5070641;28;20261;-62
2023/07/05 09:31:57;;;;;;;4.97;2.58;;;24.10;99.90;;;;;;5071040;28;20278;-60
2023/07/05 09:34:29;;;;;;;4.90;2.47;;;24.00;99.90;;;;;;5071126;28;20266;-60
2023/07/05 09:36:59;;;;;;;3.95;2.50;;;24.30;99.90;;;;;;5070765;28;20250;-58
2023/07/05 09:39:33;;;;;;;3.22;2.92;;;24.80;99.90;;;;;;5071006;28;20232;-59
2023/07/05 09:42:03;;;;;;;6.82;3.13;;;25.20;99.90;;;;;;5070769;28;20770;-59
2023/07/05 09:44:31;;;;;;;12.32;8.25;;;25.50;99.90;;;;;;5071080;28;20292;-61
2023/07/05 09:46:58;;;;;;;3.55;2.75;;;25.60;99.90;;;;;;5070536;28;20229;-58
2023/07/05 09:49:27;;;;;;;3.55;2.70;;;25.60;99.40;;;;;;5070594;28;20233;-58
2023/07/05 09:51:54;;;;;;;3.83;2.83;;;25.40;98.70;;;;;;5071163;28;20300;-59
2023/07/05 09:54:25;;;;;;;3.88;3.08;;;25.30;99.00;;;;;;5071904;28;20624;-58
2023/07/05 09:56:57;;;;;;;3.92;2.83;;;25.30;98.70;;;;;;5074595;28;20287;-59
2023/07/05 09:59:24;;;;;;;3.30;2.60;;;24.90;99.00;;;;;;5074590;28;20306;-59
2023/07/05 10:01:54;;;;;;;2.97;2.67;;;24.70;99.60;;;;;;5074157;28;20204;-58
2023/07/05 10:04:26;;;;;;;5.03;3.25;;;24.60;99.60;;;;;;5074227;28;20220;-59
2023/07/05 10:06:53;;;;;;;4.03;3.10;;;24.50;99.30;;;;;;5074051;28;20320;-58
2023/07/05 10:09:24;;;;;;;5.18;3.20;;;24.30;99.00;;;;;;5074208;28;20237;-58
2023/07/05 10:11:53;;;;;;;5.53;2.88;;;24.10;99.40;;;;;;5074702;28;20208;-59
2023/07/05 10:14:21;;;;;;;4.78;3.55;;;24.00;99.00;;;;;;5074250;28;20706;-58
2023/07/05 10:16:53;;;;;;;5.75;3.35;;;24.00;99.20;;;;;;5073602;28;20676;-58
2023/07/05 10:19:26;;;;;;;3.63;3.20;;;23.90;99.10;;;;;;5073814;28;20732;-58
2023/07/05 10:21:56;;;;;;;4.38;3.40;;;24.00;97.90;;;;;;5074302;28;20204;-59
2023/07/05 10:24:25;;;;;;;4.55;3.33;;;24.00;98.70;;;;;;5074240;28;20258;-59
2023/07/05 10:27:01;;;;;;;4.35;3.40;;;24.30;97.90;;;;;;5073635;28;20263;-58
2023/07/05 10:29:29;;;;;;;5.20;2.95;;;24.40;97.60;;;;;;5074052;28;20228;-58
2023/07/05 10:32:00;;;;;;;3.90;3.05;;;24.50;96.70;;;;;;5073956;28;20209;-58
2023/07/05 10:34:26;;;;;;;3.55;2.70;;;24.50;95.40;;;;;;5073865;28;20649;-58
2023/07/05 10:36:54;;;;;;;5.40;3.00;;;24.50;95.10;;;;;;5073629;28;20201;-59
2023/07/05 10:39:26;;;;;;;3.67;3.15;;;24.40;94.60;;;;;;5073490;28;20229;-62
2023/07/05 10:41:56;;;;;;;4.20;2.70;;;24.40;93.90;;;;;;5073407;28;20209;-58
2023/07/05 10:44:27;;;;;;;3.28;2.58;;;24.40;93.30;;;;;;5073734;28;20285;-58
2023/07/05 10:46:56;;;;;;;4.03;2.97;;;24.40;93.20;;;;;;5073567;28;20727;-59
2023/07/05 10:49:24;;;;;;;3.78;2.97;;;24.40;93.30;;;;;;5073176;28;20259;-60
2023/07/05 10:51:53;;;;;;;5.78;3.15;;;24.40;91.90;;;;;;5073260;28;20216;-59
2023/07/05 10:54:28;;;;;;;3.40;2.90;;;24.50;91.50;;;;;;5073379;28;20698;-62
2023/07/05 10:56:55;;;;;;;3.60;2.92;;;24.50;90.70;;;;;;5073398;28;20204;-60
2023/07/05 10:59:33;;;;;;;4.82;2.55;;;24.50;90.50;;;;;;5073286;28;20224;-58
2023/07/05 11:02:03;;;;;;;3.60;2.83;;;24.70;88.70;;;;;;5073523;28;20235;-58
2023/07/05 11:04:32;;;;;;;4.72;2.85;;;24.70;88.30;;;;;;5073247;28;20591;-59
2023/07/05 11:07:07;;;;;;;3.42;2.65;;;24.70;88.70;;;;;;5072439;28;20225;-58
2023/07/05 11:09:36;;;;;;;3.22;2.70;;;24.60;87.60;;;;;;5073335;28;20255;-61
2023/07/05 11:12:08;;;;;;;4.07;3.03;;;24.60;85.60;;;;;;5073444;28;20216;-61
2023/07/05 11:14:36;;;;;;;3.67;2.92;;;24.60;86.50;;;;;;5073173;28;20205;-61
2023/07/05 11:17:05;;;;;;;4.22;3.25;;;24.80;84.30;;;;;;5072787;28;20201;-61
2023/07/05 11:19:32;;;;;;;3.42;2.50;;;25.10;82.90;;;;;;5072577;28;20383;-61
2023/07/05 11:22:00;;;;;;;3.20;2.35;;;25.20;80.70;;;;;;5073032;28;20212;-60
2023/07/05 11:24:52;;;;;;;3.35;2.55;;;25.20;80.40;;;;;;5072755;28;20204;-61
2023/07/05 11:27:52;;;;;;;3.20;2.40;;;25.10;80.40;;;;;;5062178;28;20232;-61
2023/07/05 11:30:38;;;;;;;3.58;2.95;;;25.20;77.60;;;;;;5072900;28;20309;-60
2023/07/05 11:33:24;;;;;;;3.33;2.20;;;25.30;74.70;;;;;;5072961;28;20292;-60
2023/07/05 11:35:54;;;;;;;3.10;1.88;;;25.30;72.00;;;;;;5072284;28;20658;-61
2023/07/05 11:38:55;;;;;;;2.92;2.20;;;25.10;70.00;;;;;;5072806;28;20230;-61
2023/07/05 11:41:31;;;;;;;2.63;2.05;;;25.10;68.80;;;;;;5072710;28;20216;-61
2023/07/05 11:44:01;;;;;;;4.13;2.33;;;25.30;68.50;;;;;;5072724;28;20266;-61
2023/07/05 11:46:45;;;;;;;4.70;1.85;;;25.50;69.70;;;;;;5072685;28;20619;-61
2023/07/05 11:49:26;;;;;;;3.35;2.20;;;25.50;70.20;;;;;;5072446;28;20241;-61
2023/07/05 11:51:57;;;;;;;6.20;2.17;;;25.30;70.90;;;;;;5072567;28;20287;-62
2023/07/05 11:54:32;;;;;;;3.95;2.28;;;25.40;70.60;;;;;;5072635;28;20205;-60
2023/07/05 11:57:04;;;;;;;3.13;2.20;;;25.50;67.60;;;;;;5072610;28;20209;-60
2023/07/05 11:59:35;;;;;;;2.13;1.90;;;25.50;67.50;;;;;;5072225;28;20587;-61
2023/07/05 12:02:11;;;;;;;6.32;2.72;;;25.40;66.60;;;;;;5072442;28;20586;-59
2023/07/05 12:04:40;;;;;;;2.65;2.33;;;25.30;66.70;;;;;;5072473;28;20211;-61
2023/07/05 12:07:09;;;;;;;5.35;2.25;;;25.20;68.10;;;;;;5072099;28;20221;-59
2023/07/05 12:09:37;;;;;;;3.08;2.00;;;25.30;66.50;;;;;;5072246;28;20301;-59
2023/07/05 12:12:06;;;;;;;6.45;2.00;;;25.30;65.40;;;;;;5072383;28;20292;-60
2023/07/05 12:14:33;;;;;;;3.70;1.90;;;25.20;67.50;;;;;;5072170;28;20212;-59
2023/07/05 12:17:00;;;;;;;5.50;2.17;;;25.10;67.70;;;;;;5071691;28;20307;-59
2023/07/05 12:19:30;;;;;;;2.22;1.88;;;25.00;67.60;;;;;;5071552;28;20237;-59
2023/07/05 12:22:00;;;;;;;2.30;2.00;;;24.80;67.60;;;;;;5072289;28;20235;-59
2023/07/05 12:24:27;;;;;;;3.22;1.90;;;24.80;69.30;;;;;;5072091;28;20205;-59
2023/07/05 12:26:57;;;;;;;4.43;2.10;;;24.60;70.10;;;;;;5071672;28;20676;-60
2023/07/05 12:29:28;;;;;;;5.65;2.10;;;24.40;71.60;;;;;;5071761;28;20319;-59
2023/07/05 12:32:07;;;;;;;3.53;1.92;;;24.40;71.00;;;;;;5071864;28;20287;-59
2023/07/05 12:34:34;;;;;;;3.00;2.42;;;24.50;71.30;;;;;;5072002;28;20672;-60
2023/07/05 12:37:01;;;;;;;2.38;1.83;;;24.50;70.10;;;;;;5071764;28;20204;-60
2023/07/05 12:39:28;;;;;;;3.33;2.10;;;24.40;71.90;;;;;;5071820;28;20225;-61
2023/07/05 12:42:02;;;;;;;3.72;1.80;;;24.40;70.10;;;;;;5071912;28;20231;-59
2023/07/05 12:44:30;;;;;;;3.40;2.03;;;24.30;70.20;;;;;;5071850;28;20231;-60
2023/07/05 12:47:11;;;;;;;2.67;2.10;;;24.40;70.30;;;;;;5071544;28;20291;-59
2023/07/05 12:49:38;;;;;;;4.68;2.03;;;24.40;68.90;;;;;;5071945;28;20270;-58
2023/07/05 12:52:05;;;;;;;2.10;1.80;;;24.50;68.40;;;;;;5071751;28;20201;-59
2023/07/05 12:54:31;;;;;;;2.60;1.60;;;24.50;68.10;;;;;;5071784;28;20209;-59
2023/07/05 12:56:58;;;;;;;3.58;2.00;;;24.40;68.00;;;;;;5071338;28;20236;-59